createdAt,value
2023-02-08T00:01:09.663Z,6.30
2023-02-08T00:03:37.667Z,6.57
2023-02-08T00:06:06.521Z,5.93
2023-02-08T00:08:35.107Z,6.37
2023-02-08T00:11:03.291Z,5.93
2023-02-08T00:13:31.207Z,5.60
2023-02-08T00:16:00.616Z,5.60
2023-02-08T00:18:28.527Z,5.70
2023-02-08T00:20:57.224Z,6.27
2023-02-08T00:23:25.630Z,5.83
2023-02-08T00:25:54.002Z,6.00
2023-02-08T00:28:21.845Z,6.90
2023-02-08T00:30:49.949Z,6.60
2023-02-08T00:33:19.082Z,5.27
2023-02-08T00:35:46.942Z,5.77
2023-02-08T00:38:14.762Z,6.37
2023-02-08T00:40:42.712Z,5.87
2023-02-08T00:43:10.770Z,5.93
2023-02-08T00:45:38.540Z,6.63
2023-02-08T00:48:06.328Z,6.47
2023-02-08T00:50:35.422Z,6.00
2023-02-08T00:53:03.197Z,5.80
2023-02-08T00:55:31.017Z,6.20
2023-02-08T00:57:58.799Z,6.23
2023-02-08T01:00:26.638Z,6.80
2023-02-08T01:02:54.438Z,6.73
2023-02-08T01:05:22.208Z,5.77
2023-02-08T01:07:51.303Z,6.73
2023-02-08T01:10:19.175Z,6.10
2023-02-08T01:12:46.958Z,5.33
2023-02-08T01:15:14.711Z,5.57
2023-02-08T01:17:42.450Z,6.17
2023-02-08T01:20:11.497Z,5.27
2023-02-08T01:22:39.257Z,5.77
2023-02-08T01:25:08.703Z,6.67
2023-02-08T01:27:36.509Z,6.10
2023-02-08T01:30:04.655Z,6.17
2023-02-08T01:32:32.468Z,5.70
2023-02-08T01:35:00.427Z,5.20
2023-02-08T01:37:28.267Z,6.13
2023-02-08T01:39:56.047Z,5.97
2023-02-08T01:42:25.171Z,6.00
2023-02-08T01:45:29.870Z,5.53
2023-02-08T01:48:06.603Z,5.80
2023-02-08T01:50:42.554Z,5.50
2023-02-08T01:53:10.972Z,5.50
2023-02-08T01:55:43.959Z,6.13
2023-02-08T01:58:14.535Z,5.93
2023-02-08T02:00:42.770Z,6.07
2023-02-08T02:03:10.902Z,5.73
2023-02-08T02:05:42.277Z,6.03
2023-02-08T02:08:11.295Z,5.57
2023-02-08T02:10:41.633Z,5.53
2023-02-08T02:13:14.261Z,6.30
2023-02-08T02:15:43.913Z,5.93
2023-02-08T02:18:12.261Z,6.07
2023-02-08T02:20:58.398Z,6.20
2023-02-08T02:23:46.816Z,7.07
2023-02-08T02:26:47.856Z,6.40
2023-02-08T02:29:50.500Z,5.50
2023-02-08T02:32:44.847Z,5.37
2023-02-08T02:35:20.039Z,5.73
2023-02-08T02:37:54.582Z,6.07
2023-02-08T02:40:27.659Z,7.00
2023-02-08T02:43:24.519Z,6.53
2023-02-08T02:46:00.721Z,6.27
2023-02-08T02:48:38.115Z,6.60
2023-02-08T02:51:12.042Z,6.43
2023-02-08T02:53:48.593Z,6.20
2023-02-08T02:56:20.562Z,6.77
2023-02-08T02:58:50.811Z,6.40
2023-02-08T03:01:26.023Z,6.73
2023-02-08T03:03:55.802Z,6.23
2023-02-08T03:06:35.716Z,6.33
2023-02-08T03:09:31.150Z,6.83
2023-02-08T03:12:05.867Z,7.03
2023-02-08T03:14:45.811Z,6.60
2023-02-08T03:17:31.613Z,6.83
2023-02-08T03:20:06.262Z,6.93
2023-02-08T03:22:44.152Z,6.70
2023-02-08T03:25:18.942Z,7.10
2023-02-08T03:27:56.140Z,6.53
2023-02-08T03:30:30.912Z,6.93
2023-02-08T03:33:06.434Z,6.77
2023-02-08T03:35:41.514Z,7.10
2023-02-08T03:38:14.199Z,5.87
2023-02-08T03:40:46.091Z,6.27
2023-02-08T03:43:17.311Z,7.10
2023-02-08T03:45:50.973Z,7.77
2023-02-08T03:48:21.324Z,6.73
2023-02-08T03:50:53.615Z,7.40
2023-02-08T03:53:24.069Z,6.77
2023-02-08T03:56:01.241Z,7.13
2023-02-08T03:58:35.481Z,6.83
2023-02-08T04:01:09.723Z,6.70
2023-02-08T04:03:38.603Z,7.03
2023-02-08T04:06:08.090Z,6.93
2023-02-08T04:08:35.867Z,6.83
2023-02-08T04:11:03.641Z,7.47
2023-02-08T04:13:31.510Z,7.37
2023-02-08T04:15:59.458Z,7.37
2023-02-08T04:18:27.278Z,6.90
2023-02-08T04:20:55.050Z,7.57
2023-02-08T04:23:24.209Z,7.43
2023-02-08T04:25:52.001Z,8.33
2023-02-08T04:28:19.794Z,7.13
2023-02-08T04:30:47.973Z,7.03
2023-02-08T04:33:15.864Z,6.90
2023-02-08T04:35:44.228Z,7.63
2023-02-08T04:38:12.023Z,6.97
2023-02-08T04:40:41.432Z,6.97
2023-02-08T04:43:09.455Z,8.30
2023-02-08T04:45:37.624Z,7.77
2023-02-08T04:48:07.253Z,7.70
2023-02-08T04:50:35.332Z,7.80
2023-02-08T04:53:03.107Z,8.57
2023-02-08T04:55:30.962Z,8.17
2023-02-08T04:58:00.213Z,7.83
2023-02-08T05:00:28.189Z,8.33
2023-02-08T05:02:57.259Z,7.60
2023-02-08T05:05:25.897Z,7.40
2023-02-08T05:07:53.832Z,7.83
2023-02-08T05:10:21.875Z,8.10
2023-02-08T05:12:49.683Z,7.70
2023-02-08T05:15:18.987Z,8.40
2023-02-08T05:17:46.745Z,9.20
2023-02-08T05:20:14.633Z,8.13
2023-02-08T05:22:42.539Z,8.33
2023-02-08T05:25:10.719Z,8.50
2023-02-08T05:27:38.564Z,7.63
2023-02-08T05:30:07.204Z,7.93
2023-02-08T05:32:36.323Z,8.50
2023-02-08T05:35:04.207Z,9.07
2023-02-08T05:37:32.078Z,7.57
2023-02-08T05:39:59.876Z,8.00
2023-02-08T05:42:27.680Z,8.23
2023-02-08T05:44:55.442Z,6.80
2023-02-08T05:47:23.254Z,7.57
2023-02-08T05:49:52.471Z,7.33
2023-02-08T05:52:20.250Z,8.03
2023-02-08T05:54:48.062Z,6.83
2023-02-08T05:57:15.837Z,7.00
2023-02-08T05:59:43.599Z,7.80
2023-02-08T06:02:11.387Z,8.00
2023-02-08T06:04:39.353Z,9.27
2023-02-08T06:07:08.495Z,8.13
2023-02-08T06:09:36.337Z,8.13
2023-02-08T06:12:04.132Z,7.80
2023-02-08T06:14:32.232Z,8.37
2023-02-08T06:17:00.218Z,9.27
2023-02-08T06:19:28.094Z,9.10
2023-02-08T06:21:56.089Z,10.93
2023-02-08T06:24:25.276Z,10.70
2023-02-08T06:26:53.091Z,9.93
2023-02-08T06:29:20.883Z,10.40
2023-02-08T06:31:49.009Z,9.53
2023-02-08T06:34:16.895Z,8.23
2023-02-08T06:36:45.289Z,11.00
2023-02-08T06:39:13.088Z,9.83
2023-02-08T06:41:42.177Z,10.77
2023-02-08T06:44:09.963Z,10.10
2023-02-08T06:46:37.721Z,10.37
2023-02-08T06:49:05.497Z,10.53
2023-02-08T06:51:33.279Z,9.73
2023-02-08T06:54:01.072Z,10.67
2023-02-08T06:56:28.846Z,10.80
2023-02-08T06:58:58.926Z,9.97
2023-02-08T07:01:26.766Z,10.60
2023-02-08T07:03:54.615Z,11.20
2023-02-08T07:06:22.398Z,10.50
2023-02-08T07:08:51.847Z,9.77
2023-02-08T07:11:21.542Z,9.37
2023-02-08T07:13:49.969Z,9.77
2023-02-08T07:16:19.980Z,9.27
2023-02-08T07:18:47.823Z,10.23
2023-02-08T07:21:15.995Z,9.43
2023-02-08T07:23:43.785Z,8.83
2023-02-08T07:26:14.283Z,9.57
2023-02-08T07:28:42.507Z,9.47
2023-02-08T07:31:12.367Z,9.83
2023-02-08T07:33:42.120Z,9.57
2023-02-08T07:36:11.309Z,9.57
2023-02-08T07:38:39.878Z,10.30
2023-02-08T07:41:10.173Z,11.27
2023-02-08T07:43:38.978Z,13.00
2023-02-08T07:46:08.073Z,11.40
2023-02-08T07:48:36.912Z,10.53
2023-02-08T07:51:07.715Z,10.43
2023-02-08T07:53:36.026Z,10.27
2023-02-08T07:56:03.864Z,10.97
2023-02-08T07:58:31.699Z,12.00
2023-02-08T08:01:06.882Z,11.50
2023-02-08T08:03:37.489Z,11.53
2023-02-08T08:06:07.132Z,11.80
2023-02-08T08:08:35.238Z,10.17
2023-02-08T08:11:03.923Z,11.87
2023-02-08T08:13:31.774Z,11.70
2023-02-08T08:15:59.638Z,11.33
2023-02-08T08:18:27.439Z,10.90
2023-02-08T08:20:55.210Z,10.53
2023-02-08T08:23:24.676Z,10.83
2023-02-08T08:25:52.443Z,10.53
2023-02-08T08:28:20.359Z,11.20
2023-02-08T08:30:48.455Z,10.90
2023-02-08T08:33:16.310Z,11.23
2023-02-08T08:35:47.003Z,11.30
2023-02-08T08:38:14.775Z,10.93
2023-02-08T08:40:44.069Z,11.63
2023-02-08T08:43:11.960Z,11.13
2023-02-08T08:45:40.241Z,11.37
2023-02-08T08:48:08.180Z,11.67
2023-02-08T08:50:35.942Z,12.53
2023-02-08T08:53:03.727Z,11.40
2023-02-08T08:55:31.566Z,12.13
2023-02-08T08:58:00.694Z,11.63
2023-02-08T09:00:28.467Z,11.53
2023-02-08T09:02:56.248Z,12.20
2023-02-08T09:05:24.030Z,11.17
2023-02-08T09:07:51.811Z,12.07
2023-02-08T09:10:19.672Z,11.27
2023-02-08T09:12:47.676Z,12.10
2023-02-08T09:15:16.896Z,11.03
2023-02-08T09:17:44.915Z,11.90
2023-02-08T09:20:12.923Z,10.87
2023-02-08T09:22:40.689Z,11.40
2023-02-08T09:25:08.915Z,10.70
2023-02-08T09:27:36.741Z,10.70
2023-02-08T09:30:06.770Z,10.57
2023-02-08T09:32:36.635Z,9.67
2023-02-08T09:35:04.595Z,10.47
2023-02-08T09:37:32.388Z,10.23
2023-02-08T09:40:00.475Z,10.70
2023-02-08T09:42:38.457Z,10.97
2023-02-08T09:45:21.567Z,9.80
2023-02-08T09:47:59.271Z,10.57
2023-02-08T09:50:33.389Z,9.60
2023-02-08T09:53:06.923Z,9.60
2023-02-08T09:55:38.336Z,9.33
2023-02-08T09:58:18.532Z,9.73
2023-02-08T10:00:50.590Z,9.83
2023-02-08T10:03:30.852Z,9.70
2023-02-08T10:05:59.070Z,10.67
2023-02-08T10:08:35.210Z,10.37
2023-02-08T10:11:13.884Z,9.90
2023-02-08T10:13:59.303Z,9.20
2023-02-08T10:16:51.398Z,9.93
2023-02-08T10:19:37.404Z,8.87
2023-02-08T10:22:17.922Z,8.30
2023-02-08T10:25:00.178Z,9.43
2023-02-08T10:27:39.060Z,9.17
2023-02-08T10:30:25.704Z,9.93
2023-02-08T10:33:01.166Z,9.53
2023-02-08T10:35:36.913Z,9.20
2023-02-08T10:38:23.498Z,9.00
2023-02-08T10:40:55.803Z,8.60
2023-02-08T10:43:34.021Z,9.37
2023-02-08T10:46:08.524Z,9.83
2023-02-08T10:48:58.552Z,8.63
2023-02-08T10:51:28.472Z,10.17
2023-02-08T10:53:56.254Z,8.70
2023-02-08T10:56:44.011Z,9.17
2023-02-08T10:59:17.867Z,8.40
2023-02-08T11:01:47.923Z,8.77
2023-02-08T11:04:16.812Z,8.43
2023-02-08T11:06:47.643Z,8.33
2023-02-08T11:09:24.436Z,8.43
2023-02-08T11:11:53.389Z,8.80
2023-02-08T11:14:30.425Z,9.60
2023-02-08T11:17:05.845Z,8.37
2023-02-08T11:19:39.087Z,8.33
2023-02-08T11:22:13.783Z,8.70
2023-02-08T11:24:45.894Z,8.53
2023-02-08T11:27:18.761Z,8.13
2023-02-08T11:29:46.559Z,8.63
2023-02-08T11:32:19.845Z,8.77
2023-02-08T11:34:48.741Z,7.90
2023-02-08T11:37:20.811Z,8.07
2023-02-08T11:39:54.185Z,8.53
2023-02-08T11:42:25.400Z,8.13
2023-02-08T11:44:54.455Z,9.10
2023-02-08T11:47:26.489Z,9.50
2023-02-08T11:49:55.793Z,9.47
2023-02-08T11:52:29.653Z,9.20
2023-02-08T11:55:14.949Z,9.63
2023-02-08T11:57:54.300Z,9.67
2023-02-08T12:00:25.350Z,10.30
2023-02-08T12:02:59.603Z,9.47
2023-02-08T12:05:36.321Z,10.07
2023-02-08T12:08:17.608Z,10.97
2023-02-08T12:11:02.903Z,9.97
2023-02-08T12:14:05.310Z,10.10
2023-02-08T12:16:48.387Z,10.10
2023-02-08T12:19:39.517Z,10.27
2023-02-08T12:22:11.395Z,9.70
2023-02-08T12:24:50.130Z,10.03
2023-02-08T12:27:30.910Z,9.63
2023-02-08T12:30:09.219Z,10.53
2023-02-08T12:32:51.853Z,9.10
2023-02-08T12:35:48.123Z,11.07
2023-02-08T12:38:52.961Z,9.70
2023-02-08T12:41:30.931Z,9.43
2023-02-08T12:44:06.378Z,9.97
2023-02-08T12:46:58.048Z,10.27
2023-02-08T12:49:37.484Z,9.83
2023-02-08T12:52:18.625Z,9.80
2023-02-08T12:54:50.260Z,9.50
2023-02-08T12:57:23.876Z,9.70
2023-02-08T12:59:58.471Z,9.67
2023-02-08T13:02:31.220Z,9.03
2023-02-08T13:05:04.944Z,10.00
2023-02-08T13:07:36.320Z,9.10
2023-02-08T13:10:09.159Z,9.57
2023-02-08T13:12:42.930Z,8.50
2023-02-08T13:15:29.743Z,9.70
2023-02-08T13:18:00.380Z,9.10
2023-02-08T13:20:39.623Z,8.67
2023-02-08T13:23:16.414Z,8.60
2023-02-08T13:25:45.288Z,8.97
2023-02-08T13:28:20.252Z,9.53
2023-02-08T13:30:55.213Z,8.33
2023-02-08T13:33:31.046Z,7.47
2023-02-08T13:35:59.647Z,8.20
2023-02-08T13:38:31.472Z,8.23
2023-02-08T13:41:16.178Z,8.77
2023-02-08T13:43:50.938Z,8.17
2023-02-08T13:46:20.488Z,8.77
2023-02-08T13:48:51.181Z,8.47
2023-02-08T13:52:02.228Z,7.80
2023-02-08T13:54:30.318Z,8.03
2023-02-08T13:56:58.672Z,7.97
2023-02-08T13:59:36.452Z,8.30
2023-02-08T14:02:31.053Z,8.77
2023-02-08T14:05:32.383Z,8.70
2023-02-08T14:08:02.474Z,8.67
2023-02-08T14:10:37.592Z,8.13
2023-02-08T14:13:16.999Z,8.10
2023-02-08T14:15:46.425Z,7.17
2023-02-08T14:18:25.381Z,8.00
2023-02-08T14:21:05.497Z,6.93
2023-02-08T14:23:38.817Z,7.83
2023-02-08T14:26:10.349Z,8.47
2023-02-08T14:28:41.346Z,8.43
2023-02-08T14:31:13.455Z,7.87
2023-02-08T14:33:44.595Z,7.20
2023-02-08T14:36:26.844Z,7.27
2023-02-08T14:39:07.116Z,8.30
2023-02-08T14:41:47.190Z,7.23
2023-02-08T14:44:54.495Z,7.10
2023-02-08T14:48:02.800Z,7.47
2023-02-08T14:50:39.666Z,6.70
2023-02-08T14:53:22.313Z,8.20
2023-02-08T14:55:52.998Z,7.60
2023-02-08T14:58:29.444Z,7.90
2023-02-08T15:01:01.605Z,7.10
2023-02-08T15:03:32.345Z,7.23
2023-02-08T15:06:19.332Z,7.60
2023-02-08T15:08:51.795Z,7.10
2023-02-08T15:11:23.737Z,7.10
2023-02-08T15:13:53.741Z,5.87
2023-02-08T15:16:22.058Z,6.90
2023-02-08T15:18:52.455Z,7.47
2023-02-08T15:21:27.742Z,5.77
2023-02-08T15:24:05.754Z,5.90
2023-02-08T15:26:33.682Z,6.30
2023-02-08T15:29:01.904Z,7.00
2023-02-08T15:31:33.491Z,6.50
2023-02-08T15:34:02.938Z,6.97
2023-02-08T15:36:33.691Z,6.80
2023-02-08T15:39:11.140Z,6.80
2023-02-08T15:41:39.023Z,5.63
2023-02-08T15:44:17.811Z,7.00
2023-02-08T15:46:47.316Z,6.97
2023-02-08T15:49:17.930Z,6.87
2023-02-08T15:51:50.399Z,6.77
2023-02-08T15:54:19.128Z,7.30
2023-02-08T15:56:52.001Z,6.33
2023-02-08T15:59:24.975Z,7.00
2023-02-08T16:01:53.796Z,6.80
2023-02-08T16:04:21.711Z,6.97
2023-02-08T16:06:53.463Z,6.50
2023-02-08T16:09:25.107Z,7.00
2023-02-08T16:11:53.515Z,6.70
2023-02-08T16:14:27.862Z,7.13
2023-02-08T16:16:58.543Z,6.67
2023-02-08T16:19:28.976Z,6.60
2023-02-08T16:22:16.362Z,6.77
2023-02-08T16:24:46.772Z,7.33
2023-02-08T16:27:21.050Z,6.97
2023-02-08T16:29:49.151Z,7.10
2023-02-08T16:32:23.533Z,7.27
2023-02-08T16:34:51.594Z,6.90
2023-02-08T16:37:27.693Z,6.43
2023-02-08T16:39:56.799Z,6.83
2023-02-08T16:42:30.565Z,6.67
2023-02-08T16:45:01.684Z,7.33
2023-02-08T16:47:35.940Z,7.33
2023-02-08T16:50:03.747Z,7.87
2023-02-08T16:52:33.540Z,8.27
2023-02-08T16:55:02.010Z,8.20
2023-02-08T16:57:40.512Z,8.17
2023-02-08T17:00:20.874Z,7.70
2023-02-08T17:02:49.141Z,7.23
2023-02-08T17:05:18.219Z,7.70
2023-02-08T17:07:47.803Z,7.60
2023-02-08T17:10:20.316Z,8.20
2023-02-08T17:12:48.469Z,7.50
2023-02-08T17:15:16.677Z,8.17
2023-02-08T17:17:44.487Z,7.37
2023-02-08T17:20:19.734Z,8.80
2023-02-08T17:22:49.470Z,9.50
2023-02-08T17:25:19.746Z,9.40
2023-02-08T17:27:50.754Z,9.63
2023-02-08T17:30:22.699Z,9.53
2023-02-08T17:32:50.783Z,8.40
2023-02-08T17:35:19.043Z,8.97
2023-02-08T17:37:50.371Z,7.13
2023-02-08T17:40:18.809Z,8.33
2023-02-08T17:42:47.714Z,7.77
2023-02-08T17:45:15.659Z,7.70
2023-02-08T17:47:43.491Z,8.77
2023-02-08T17:50:12.329Z,8.83
2023-02-08T17:52:41.288Z,8.67
2023-02-08T17:55:13.204Z,9.20
2023-02-08T17:57:42.759Z,8.90
2023-02-08T18:00:13.034Z,9.63
2023-02-08T18:02:44.688Z,9.27
2023-02-08T18:05:12.460Z,10.87
2023-02-08T18:07:41.298Z,9.83
2023-02-08T18:10:13.127Z,8.83
2023-02-08T18:12:40.975Z,8.60
2023-02-08T18:15:11.926Z,8.63
2023-02-08T18:17:40.013Z,10.00
2023-02-08T18:20:09.022Z,9.37
2023-02-08T18:22:37.925Z,9.37
2023-02-08T18:25:06.252Z,10.33
2023-02-08T18:27:35.635Z,10.43
2023-02-08T18:30:03.460Z,10.20
2023-02-08T18:32:31.301Z,9.57
2023-02-08T18:35:00.171Z,9.50
2023-02-08T18:37:28.995Z,9.77
2023-02-08T18:39:56.920Z,8.60
2023-02-08T18:42:24.683Z,9.97
2023-02-08T18:44:53.811Z,9.17
2023-02-08T18:47:21.577Z,9.07
2023-02-08T18:49:54.113Z,10.10
2023-02-08T18:52:23.540Z,9.47
2023-02-08T18:54:51.412Z,10.00
2023-02-08T18:57:19.542Z,9.90
2023-02-08T18:59:47.349Z,10.67
2023-02-08T19:02:20.807Z,10.23
2023-02-08T19:04:49.185Z,10.60
2023-02-08T19:07:17.136Z,10.50
2023-02-08T19:09:44.906Z,9.87
2023-02-08T19:12:15.305Z,9.70
2023-02-08T19:14:43.938Z,9.43
2023-02-08T19:17:14.427Z,10.30
2023-02-08T19:19:43.980Z,9.27
2023-02-08T19:22:11.789Z,10.23
2023-02-08T19:24:39.575Z,10.00
2023-02-08T19:27:07.343Z,10.80
2023-02-08T19:29:35.306Z,9.07
2023-02-08T19:32:03.145Z,9.60
2023-02-08T19:34:31.027Z,9.50
2023-02-08T19:37:00.210Z,10.07
2023-02-08T19:39:28.663Z,10.57
2023-02-08T19:41:58.390Z,9.27
2023-02-08T19:44:29.000Z,9.77
2023-02-08T19:46:57.695Z,10.33
2023-02-08T19:49:27.195Z,9.77
2023-02-08T19:51:55.644Z,8.83
2023-02-08T19:54:24.889Z,9.37
2023-02-08T19:56:54.526Z,10.70
2023-02-08T19:59:25.154Z,8.90
2023-02-08T20:01:53.591Z,10.17
2023-02-08T20:04:22.304Z,9.57
2023-02-08T20:06:52.511Z,9.27
2023-02-08T20:09:20.808Z,8.63
2023-02-08T20:11:57.202Z,8.80
2023-02-08T20:14:26.438Z,8.73
2023-02-08T20:16:54.509Z,9.37
2023-02-08T20:19:22.308Z,10.00
2023-02-08T20:21:50.489Z,9.17
2023-02-08T20:24:18.757Z,9.73
2023-02-08T20:26:47.774Z,9.97
2023-02-08T20:29:17.956Z,8.97
2023-02-08T20:31:47.730Z,9.73
2023-02-08T20:34:18.529Z,10.13
2023-02-08T20:37:05.294Z,9.00
2023-02-08T20:39:34.958Z,8.97
2023-02-08T20:42:02.768Z,9.43
2023-02-08T20:44:32.350Z,12.30
2023-02-08T20:47:00.460Z,9.27
2023-02-08T20:49:29.236Z,8.20
2023-02-08T20:51:57.236Z,8.43
2023-02-08T20:54:25.397Z,8.33
2023-02-08T20:56:53.968Z,7.80
2023-02-08T20:59:21.805Z,8.17
2023-02-08T21:01:51.559Z,6.97
2023-02-08T21:04:23.028Z,6.80
2023-02-08T21:06:51.887Z,8.00
2023-02-08T21:09:20.652Z,6.80
2023-02-08T21:11:48.457Z,7.20
2023-02-08T21:14:18.852Z,7.23
2023-02-08T21:16:48.416Z,7.37
2023-02-08T21:19:19.342Z,7.90
2023-02-08T21:21:50.158Z,8.03
2023-02-08T21:24:18.114Z,8.13
2023-02-08T21:26:46.059Z,8.23
2023-02-08T21:29:13.868Z,8.53
2023-02-08T21:31:41.771Z,7.97
2023-02-08T21:34:09.694Z,8.60
2023-02-08T21:36:38.835Z,8.30
2023-02-08T21:39:06.627Z,8.23
2023-02-08T21:41:34.974Z,6.97
2023-02-08T21:44:04.297Z,8.10
2023-02-08T21:46:33.336Z,8.50
2023-02-08T21:49:19.624Z,7.87
2023-02-08T21:52:06.468Z,9.33
2023-02-08T21:54:52.985Z,7.87
2023-02-08T21:57:22.627Z,9.10
2023-02-08T21:59:52.777Z,8.60
2023-02-08T22:02:23.284Z,7.87
2023-02-08T22:04:51.532Z,8.73
2023-02-08T22:07:21.082Z,7.87
2023-02-08T22:09:48.955Z,8.67
2023-02-08T22:12:20.546Z,8.23
2023-02-08T22:14:48.949Z,9.40
2023-02-08T22:17:16.987Z,8.87
2023-02-08T22:19:44.987Z,8.00
2023-02-08T22:22:12.772Z,7.97
2023-02-08T22:24:42.098Z,6.60
2023-02-08T22:27:10.728Z,7.10
2023-02-08T22:29:38.655Z,7.07
2023-02-08T22:32:08.074Z,6.57
2023-02-08T22:34:37.331Z,6.13
2023-02-08T22:37:05.407Z,6.67
2023-02-08T22:39:34.110Z,6.20
2023-02-08T22:42:07.895Z,6.43
2023-02-08T22:44:35.910Z,5.83
2023-02-08T22:47:04.751Z,6.57
2023-02-08T22:49:32.907Z,5.93
2023-02-08T22:52:01.015Z,6.33
2023-02-08T22:54:29.122Z,6.93
2023-02-08T22:56:56.902Z,6.33
2023-02-08T22:59:26.094Z,6.87
2023-02-08T23:01:53.915Z,6.70
2023-02-08T23:04:22.170Z,6.33
2023-02-08T23:06:50.055Z,6.30
2023-02-08T23:09:17.938Z,5.80
2023-02-08T23:11:45.727Z,7.50
2023-02-08T23:14:13.579Z,6.57
2023-02-08T23:16:43.097Z,5.77
2023-02-08T23:19:14.561Z,6.40
2023-02-08T23:21:42.902Z,6.07
2023-02-08T23:24:10.933Z,6.03
2023-02-08T23:26:38.904Z,6.10
2023-02-08T23:29:06.715Z,6.30
2023-02-08T23:31:34.755Z,5.43
2023-02-08T23:34:03.955Z,6.07
2023-02-08T23:36:31.740Z,6.70
2023-02-08T23:38:59.598Z,6.13
2023-02-08T23:41:27.389Z,5.77
2023-02-08T23:43:55.161Z,6.20
2023-02-08T23:46:25.257Z,6.97
2023-02-08T23:48:53.335Z,6.70
2023-02-08T23:51:25.150Z,6.60
2023-02-08T23:53:53.976Z,5.93
2023-02-08T23:56:24.319Z,6.70
2023-02-08T23:58:54.408Z,5.27
